createdAt,value
2022-11-29T00:01:11.375Z,31.75
2022-11-29T00:03:40.877Z,30.95
2022-11-29T00:06:12.543Z,32.58
2022-11-29T00:08:42.041Z,33.50
2022-11-29T00:11:18.511Z,32.42
2022-11-29T00:13:45.181Z,31.23
2022-11-29T00:16:11.814Z,31.13
2022-11-29T00:18:38.437Z,28.33
2022-11-29T00:21:08.692Z,31.02
2022-11-29T00:23:36.056Z,31.63
2022-11-29T00:26:07.553Z,30.35
2022-11-29T00:28:35.666Z,30.88
2022-11-29T00:31:15.589Z,33.00
2022-11-29T00:33:42.310Z,28.55
2022-11-29T00:36:12.681Z,32.22
2022-11-29T00:38:39.476Z,31.50
2022-11-29T00:41:06.644Z,32.30
2022-11-29T00:43:33.377Z,30.88
2022-11-29T00:46:00.059Z,35.55
2022-11-29T00:48:29.653Z,32.47
2022-11-29T00:50:56.371Z,32.70
2022-11-29T00:53:23.038Z,31.30
2022-11-29T00:55:51.133Z,33.75
2022-11-29T00:58:18.405Z,33.75
2022-11-29T01:00:45.180Z,31.88
2022-11-29T01:03:12.095Z,32.78
2022-11-29T01:05:38.695Z,34.92
2022-11-29T01:08:05.407Z,32.22
2022-11-29T01:10:32.330Z,38.67
2022-11-29T01:12:59.000Z,40.17
2022-11-29T01:15:25.973Z,34.78
2022-11-29T01:17:52.769Z,38.25
2022-11-29T01:20:19.979Z,41.80
2022-11-29T01:22:46.548Z,42.05
2022-11-29T01:25:18.415Z,39.17
2022-11-29T01:27:45.536Z,35.40
2022-11-29T01:30:13.784Z,38.92
2022-11-29T01:32:40.475Z,34.17
2022-11-29T01:35:08.765Z,36.10
2022-11-29T01:37:35.368Z,31.35
2022-11-29T01:40:05.428Z,35.20
2022-11-29T01:42:32.717Z,37.63
2022-11-29T01:45:18.982Z,37.63
2022-11-29T01:47:49.008Z,33.83
2022-11-29T01:50:15.940Z,38.50
2022-11-29T01:52:42.717Z,34.80
2022-11-29T01:55:09.855Z,38.30
2022-11-29T01:57:39.852Z,37.38
2022-11-29T02:00:14.169Z,38.80
2022-11-29T02:02:51.921Z,41.65
2022-11-29T02:05:19.623Z,35.67
2022-11-29T02:07:51.032Z,40.25
2022-11-29T02:10:18.825Z,40.55
2022-11-29T02:13:00.331Z,39.58
2022-11-29T02:15:42.806Z,35.17
2022-11-29T02:18:28.415Z,46.35
2022-11-29T02:21:25.814Z,40.30
2022-11-29T02:24:11.247Z,44.17
2022-11-29T02:26:43.862Z,45.42
2022-11-29T02:29:32.292Z,40.40
2022-11-29T02:32:04.695Z,38.63
2022-11-29T02:34:52.510Z,38.47
2022-11-29T02:37:27.971Z,40.55
2022-11-29T02:40:25.529Z,37.30
2022-11-29T02:42:56.459Z,38.53
2022-11-29T02:45:44.845Z,36.25
2022-11-29T02:48:33.160Z,37.20
2022-11-29T02:51:40.974Z,35.40
2022-11-29T02:54:20.862Z,38.40
2022-11-29T02:56:58.838Z,35.38
2022-11-29T02:59:31.159Z,33.88
2022-11-29T03:02:22.523Z,36.70
2022-11-29T03:04:56.034Z,39.55
2022-11-29T03:07:41.143Z,38.45
2022-11-29T03:10:43.113Z,33.47
2022-11-29T03:13:20.712Z,32.00
2022-11-29T03:16:02.962Z,38.25
2022-11-29T03:18:53.084Z,39.55
2022-11-29T03:21:44.694Z,37.95
2022-11-29T03:24:23.972Z,39.63
2022-11-29T03:27:06.544Z,40.78
2022-11-29T03:29:38.054Z,40.58
2022-11-29T03:32:21.773Z,41.28
2022-11-29T03:35:30.833Z,38.45
2022-11-29T03:38:20.187Z,41.55
2022-11-29T03:40:52.448Z,41.90
2022-11-29T03:44:09.574Z,38.97
2022-11-29T03:46:54.586Z,39.03
2022-11-29T03:49:39.238Z,40.10
2022-11-29T03:52:29.008Z,39.28
2022-11-29T03:55:26.353Z,39.95
2022-11-29T03:58:31.539Z,38.95
2022-11-29T04:01:29.769Z,42.60
2022-11-29T04:04:34.192Z,39.55
2022-11-29T04:07:12.854Z,41.17
2022-11-29T04:10:36.891Z,39.65
2022-11-29T04:13:33.384Z,41.45
2022-11-29T04:16:09.113Z,39.25
2022-11-29T04:18:57.145Z,39.65
2022-11-29T04:21:42.122Z,41.00
2022-11-29T04:26:45.018Z,36.80
2022-11-29T04:29:41.960Z,38.63
2022-11-29T04:32:33.181Z,39.83
2022-11-29T04:35:16.733Z,39.80
2022-11-29T04:38:11.422Z,39.65
2022-11-29T04:40:53.217Z,38.40
2022-11-29T04:43:50.028Z,37.10
2022-11-29T04:46:44.358Z,34.88
2022-11-29T04:49:44.133Z,34.63
2022-11-29T04:52:32.837Z,34.65
2022-11-29T04:55:30.682Z,31.08
2022-11-29T04:58:31.945Z,29.15
2022-11-29T05:01:12.953Z,25.23
2022-11-29T05:03:50.265Z,28.85
2022-11-29T05:06:42.838Z,26.27
2022-11-29T05:09:31.273Z,29.83
2022-11-29T05:12:23.322Z,29.75
2022-11-29T05:15:01.913Z,29.67
2022-11-29T05:17:50.601Z,28.88
2022-11-29T05:20:46.342Z,28.55
2022-11-29T05:23:50.280Z,30.67
2022-11-29T05:26:27.937Z,30.58
2022-11-29T05:29:21.561Z,29.38
2022-11-29T05:32:00.390Z,31.65
2022-11-29T05:34:35.073Z,28.80
2022-11-29T05:37:33.906Z,29.98
2022-11-29T05:40:32.091Z,26.02
2022-11-29T05:43:16.754Z,31.33
2022-11-29T05:46:12.374Z,32.25
2022-11-29T05:48:59.978Z,31.10
2022-11-29T05:51:29.308Z,34.17
2022-11-29T05:54:13.249Z,36.03
2022-11-29T05:56:56.178Z,36.00
2022-11-29T05:59:27.539Z,34.40
2022-11-29T06:02:22.398Z,33.65
2022-11-29T06:05:03.949Z,35.90
2022-11-29T06:07:45.971Z,38.33
2022-11-29T06:10:19.713Z,37.60
2022-11-29T06:13:15.040Z,40.43
2022-11-29T06:16:03.325Z,45.83
2022-11-29T06:18:58.605Z,41.42
2022-11-29T06:24:25.584Z,52.47
2022-11-29T06:27:14.092Z,43.45
2022-11-29T06:29:52.949Z,45.33
2022-11-29T06:32:59.303Z,48.53
2022-11-29T06:35:42.700Z,43.67
2022-11-29T06:38:29.069Z,44.03
2022-11-29T06:41:02.136Z,47.15
2022-11-29T06:43:30.142Z,47.20
2022-11-29T06:46:14.391Z,47.80
2022-11-29T06:49:02.090Z,53.65
2022-11-29T06:51:35.152Z,48.53
2022-11-29T06:54:25.037Z,46.67
2022-11-29T06:57:00.582Z,42.80
2022-11-29T06:59:38.704Z,45.60
2022-11-29T07:02:24.239Z,44.38
2022-11-29T07:05:17.055Z,40.70
2022-11-29T07:08:19.321Z,44.22
2022-11-29T07:10:50.976Z,43.13
2022-11-29T07:13:19.277Z,47.58
2022-11-29T07:16:08.711Z,44.22
2022-11-29T07:18:50.645Z,49.28
2022-11-29T07:21:38.947Z,47.00
2022-11-29T07:24:14.448Z,48.97
2022-11-29T07:26:49.093Z,44.80
2022-11-29T07:31:56.634Z,42.92
2022-11-29T07:34:38.299Z,44.55
2022-11-29T07:37:26.570Z,47.15
2022-11-29T07:40:03.347Z,46.58
2022-11-29T07:42:53.770Z,43.85
2022-11-29T07:45:29.796Z,48.28
2022-11-29T07:47:56.546Z,52.17
2022-11-29T07:50:24.094Z,44.90
2022-11-29T07:52:50.944Z,49.67
2022-11-29T07:55:20.553Z,50.38
2022-11-29T07:57:48.255Z,48.83
2022-11-29T08:00:16.647Z,49.60
2022-11-29T08:02:53.567Z,51.25
2022-11-29T08:05:23.117Z,51.08
2022-11-29T08:07:50.345Z,47.00
2022-11-29T08:10:17.723Z,49.78
2022-11-29T08:12:49.488Z,48.42
2022-11-29T08:15:20.604Z,51.72
2022-11-29T08:17:47.266Z,48.17
2022-11-29T08:20:15.821Z,53.83
2022-11-29T08:22:54.474Z,51.45
2022-11-29T08:25:25.419Z,52.08
2022-11-29T08:27:52.115Z,53.45
2022-11-29T08:30:18.937Z,54.33
2022-11-29T08:32:51.263Z,56.95
2022-11-29T08:35:20.050Z,51.08
2022-11-29T08:37:46.797Z,50.55
2022-11-29T08:40:18.238Z,54.58
2022-11-29T08:42:51.116Z,51.58
2022-11-29T08:45:17.913Z,56.58
2022-11-29T08:47:44.496Z,53.60
2022-11-29T08:50:18.415Z,50.10
2022-11-29T08:52:47.032Z,52.05
2022-11-29T08:55:13.927Z,56.40
2022-11-29T08:57:41.274Z,57.13
2022-11-29T09:00:09.676Z,52.05
2022-11-29T09:02:36.851Z,55.00
2022-11-29T09:05:05.103Z,52.20
2022-11-29T09:07:37.380Z,51.67
2022-11-29T09:10:06.290Z,53.00
2022-11-29T09:12:32.937Z,52.38
2022-11-29T09:15:00.479Z,57.13
2022-11-29T09:17:27.782Z,61.88
2022-11-29T09:19:54.453Z,57.55
2022-11-29T09:24:55.449Z,54.28
2022-11-29T09:27:24.917Z,56.05
2022-11-29T09:29:57.832Z,52.22
2022-11-29T09:32:25.051Z,55.72
2022-11-29T09:34:51.754Z,49.22
2022-11-29T09:37:18.431Z,54.15
2022-11-29T09:39:45.178Z,55.83
2022-11-29T09:42:29.229Z,55.40
2022-11-29T09:45:21.464Z,49.13
2022-11-29T09:47:59.658Z,51.20
2022-11-29T09:50:37.794Z,56.97
2022-11-29T09:53:26.317Z,46.78
2022-11-29T09:56:37.074Z,49.78
2022-11-29T09:59:09.444Z,48.00
2022-11-29T10:01:46.228Z,52.70
2022-11-29T10:04:23.166Z,55.35
2022-11-29T10:07:05.391Z,47.85
2022-11-29T10:09:45.664Z,47.20
2022-11-29T10:12:12.302Z,47.40
2022-11-29T10:14:54.236Z,48.35
2022-11-29T10:17:34.478Z,42.97
2022-11-29T10:20:19.103Z,43.97
2022-11-29T10:23:12.462Z,46.85
2022-11-29T10:25:42.227Z,46.30
2022-11-29T10:28:14.479Z,42.63
2022-11-29T10:30:42.761Z,46.15
2022-11-29T10:33:27.057Z,43.83
2022-11-29T10:35:59.190Z,42.13
2022-11-29T10:38:33.230Z,43.35
2022-11-29T10:41:07.630Z,42.15
2022-11-29T10:43:34.323Z,43.53
2022-11-29T10:46:01.068Z,43.17
2022-11-29T10:48:30.862Z,42.08
2022-11-29T10:50:57.662Z,40.53
2022-11-29T10:53:31.690Z,42.65
2022-11-29T10:56:14.151Z,41.03
2022-11-29T10:58:58.825Z,38.67
2022-11-29T11:01:26.328Z,41.53
2022-11-29T11:03:55.715Z,35.20
2022-11-29T11:06:26.751Z,36.13
2022-11-29T11:08:56.733Z,39.88
2022-11-29T11:11:32.998Z,37.45
2022-11-29T11:17:29.429Z,33.28
2022-11-29T11:20:21.179Z,38.85
2022-11-29T11:23:20.781Z,37.47
2022-11-29T11:25:47.740Z,38.00
2022-11-29T11:28:23.852Z,37.38
2022-11-29T11:31:00.549Z,40.13
2022-11-29T11:33:32.366Z,37.25
2022-11-29T11:36:13.329Z,39.03
2022-11-29T11:38:49.112Z,38.58
2022-11-29T11:41:29.739Z,34.83
2022-11-29T11:44:00.371Z,36.13
2022-11-29T11:46:46.968Z,38.70
2022-11-29T11:49:24.463Z,34.95
2022-11-29T11:51:51.253Z,34.85
2022-11-29T11:54:18.369Z,34.33
2022-11-29T11:56:45.344Z,34.50
2022-11-29T11:59:23.510Z,34.28
2022-11-29T12:01:51.469Z,33.55
2022-11-29T12:04:37.323Z,36.05
2022-11-29T12:07:29.623Z,31.48
2022-11-29T12:10:10.806Z,32.50
2022-11-29T12:12:41.746Z,32.40
2022-11-29T12:15:17.333Z,33.25
2022-11-29T12:17:55.805Z,28.17
2022-11-29T12:20:25.920Z,28.80
2022-11-29T12:23:14.120Z,31.83
2022-11-29T12:25:53.627Z,31.40
2022-11-29T12:28:28.334Z,34.63
2022-11-29T12:31:15.343Z,29.63
2022-11-29T12:34:10.042Z,29.08
2022-11-29T12:36:42.428Z,31.10
2022-11-29T12:39:39.774Z,28.92
2022-11-29T12:42:21.618Z,32.28
2022-11-29T12:45:04.075Z,33.25
2022-11-29T12:47:55.499Z,33.63
2022-11-29T12:50:35.080Z,35.03
2022-11-29T12:53:33.493Z,32.92
2022-11-29T12:56:27.243Z,34.00
2022-11-29T12:59:32.920Z,37.22
2022-11-29T13:05:28.501Z,35.88
2022-11-29T13:08:05.074Z,33.88
2022-11-29T13:10:49.785Z,32.63
2022-11-29T13:13:43.101Z,31.80
2022-11-29T13:16:31.900Z,36.97
2022-11-29T13:19:07.263Z,33.80
2022-11-29T13:21:38.734Z,33.30
2022-11-29T13:24:29.533Z,33.53
2022-11-29T13:26:57.582Z,35.70
2022-11-29T13:29:25.481Z,30.05
2022-11-29T13:31:52.239Z,33.10
2022-11-29T13:34:21.828Z,34.97
2022-11-29T13:36:48.385Z,31.35
2022-11-29T13:39:48.793Z,35.50
2022-11-29T13:42:29.387Z,35.75
2022-11-29T13:45:16.624Z,37.55
2022-11-29T13:47:54.201Z,34.00
2022-11-29T13:50:41.767Z,38.90
2022-11-29T13:55:58.142Z,36.13
2022-11-29T13:58:27.735Z,33.92
2022-11-29T14:01:00.679Z,35.15
2022-11-29T14:03:37.706Z,34.97
2022-11-29T14:06:11.789Z,33.20
2022-11-29T14:09:21.674Z,31.63
2022-11-29T14:11:48.235Z,35.15
2022-11-29T14:14:47.368Z,31.67
2022-11-29T14:17:32.311Z,38.15
2022-11-29T14:20:37.863Z,33.65
2022-11-29T14:28:21.481Z,35.60
2022-11-29T14:30:51.688Z,36.72
2022-11-29T14:33:24.908Z,32.45
2022-11-29T14:36:22.822Z,35.75
2022-11-29T14:39:26.232Z,31.98
2022-11-29T14:42:24.157Z,34.47
2022-11-29T14:44:59.194Z,31.65
2022-11-29T14:47:33.339Z,33.72
2022-11-29T14:50:05.146Z,31.85
2022-11-29T14:52:37.588Z,32.42
2022-11-29T14:55:16.576Z,31.55
2022-11-29T14:58:01.434Z,34.42
2022-11-29T15:00:30.649Z,32.15
2022-11-29T15:03:19.083Z,29.63
2022-11-29T15:05:59.982Z,30.48
2022-11-29T15:08:26.557Z,30.52
2022-11-29T15:11:01.946Z,32.97
2022-11-29T15:13:34.902Z,33.90
2022-11-29T15:16:23.323Z,33.95
2022-11-29T15:19:05.861Z,31.60
2022-11-29T15:22:08.462Z,32.92
2022-11-29T15:25:10.482Z,34.22
2022-11-29T15:27:40.149Z,35.33
2022-11-29T15:30:32.046Z,31.42
2022-11-29T15:33:00.630Z,31.25
2022-11-29T15:35:28.323Z,33.00
2022-11-29T15:37:55.429Z,32.15
2022-11-29T15:40:27.858Z,33.95
2022-11-29T15:43:06.423Z,35.50
2022-11-29T15:45:36.223Z,33.45
2022-11-29T15:48:18.043Z,36.92
2022-11-29T15:50:51.304Z,35.42
2022-11-29T15:53:44.216Z,32.72
2022-11-29T15:56:39.473Z,33.08
2022-11-29T16:01:38.174Z,32.25
2022-11-29T16:04:05.110Z,34.25
2022-11-29T16:06:42.263Z,36.17
2022-11-29T16:09:15.878Z,36.10
2022-11-29T16:11:42.926Z,33.00
2022-11-29T16:14:23.274Z,38.72
2022-11-29T16:16:52.328Z,40.08
2022-11-29T16:19:22.185Z,36.78
2022-11-29T16:22:21.969Z,37.50
2022-11-29T16:24:56.276Z,36.28
2022-11-29T16:27:23.806Z,34.88
2022-11-29T16:29:51.884Z,38.00
2022-11-29T16:32:26.115Z,35.78
2022-11-29T16:34:53.780Z,38.20
2022-11-29T16:37:42.028Z,36.05
2022-11-29T16:40:20.815Z,36.25
2022-11-29T16:43:22.508Z,38.22
2022-11-29T16:46:04.015Z,37.97
2022-11-29T16:48:31.222Z,35.95
2022-11-29T16:51:27.764Z,35.45
2022-11-29T16:54:01.893Z,37.00
2022-11-29T16:56:31.994Z,34.20
2022-11-29T16:59:17.035Z,37.20
2022-11-29T17:01:53.354Z,34.05
2022-11-29T17:04:25.316Z,40.33
2022-11-29T17:07:00.021Z,35.65
2022-11-29T17:12:01.684Z,32.47
2022-11-29T17:14:29.341Z,41.85
2022-11-29T17:17:00.958Z,41.72
2022-11-29T17:19:38.028Z,39.65
2022-11-29T17:22:04.644Z,41.10
2022-11-29T17:24:32.535Z,37.55
2022-11-29T17:26:59.132Z,43.83
2022-11-29T17:29:26.471Z,38.35
2022-11-29T17:31:55.579Z,40.72
2022-11-29T17:34:22.247Z,37.45
2022-11-29T17:36:49.159Z,41.35
2022-11-29T17:39:36.650Z,40.85
2022-11-29T17:42:03.368Z,39.88
2022-11-29T17:44:30.020Z,40.33
2022-11-29T17:46:56.594Z,36.85
2022-11-29T17:49:23.162Z,42.58
2022-11-29T17:51:52.630Z,41.78
2022-11-29T17:54:20.259Z,39.00
2022-11-29T17:56:46.801Z,38.15
2022-11-29T17:59:13.400Z,40.17
2022-11-29T18:01:40.054Z,37.67
2022-11-29T18:04:06.861Z,41.47
2022-11-29T18:06:38.639Z,41.85
2022-11-29T18:09:07.239Z,38.67
2022-11-29T18:11:49.140Z,42.35
2022-11-29T18:14:21.821Z,41.67
2022-11-29T18:16:49.673Z,37.25
2022-11-29T18:19:23.711Z,41.60
2022-11-29T18:21:51.719Z,40.92
2022-11-29T18:24:18.605Z,40.30
2022-11-29T18:26:45.513Z,37.63
2022-11-29T18:29:12.092Z,40.00
2022-11-29T18:31:41.251Z,39.83
2022-11-29T18:34:09.971Z,43.30
2022-11-29T18:36:40.184Z,39.53
2022-11-29T18:39:09.619Z,40.22
2022-11-29T18:41:37.766Z,42.83
2022-11-29T18:44:07.827Z,40.35
2022-11-29T18:46:36.658Z,40.58
2022-11-29T18:49:05.887Z,40.60
2022-11-29T18:51:33.398Z,39.35
2022-11-29T18:54:00.364Z,39.47
2022-11-29T18:56:30.623Z,42.20
2022-11-29T18:58:59.722Z,35.97
2022-11-29T19:01:32.128Z,39.40
2022-11-29T19:04:00.288Z,41.45
2022-11-29T19:06:39.040Z,39.13
2022-11-29T19:09:11.637Z,40.35
2022-11-29T19:11:38.463Z,38.35
2022-11-29T19:14:07.451Z,43.83
2022-11-29T19:16:34.669Z,45.05
2022-11-29T19:19:02.163Z,43.42
2022-11-29T19:21:31.065Z,44.05
2022-11-29T19:24:00.161Z,46.03
2022-11-29T19:26:29.083Z,46.20
2022-11-29T19:28:56.822Z,47.28
2022-11-29T19:31:25.024Z,44.00
2022-11-29T19:33:52.143Z,41.78
2022-11-29T19:36:21.691Z,41.08
2022-11-29T19:38:57.795Z,45.25
2022-11-29T19:41:27.653Z,41.85
2022-11-29T19:43:57.472Z,44.97
2022-11-29T19:46:29.230Z,47.38
2022-11-29T19:49:00.664Z,49.42
2022-11-29T19:51:28.595Z,50.90
2022-11-29T19:53:57.548Z,46.72
2022-11-29T19:56:24.846Z,45.67
2022-11-29T19:58:52.614Z,44.75
2022-11-29T20:01:21.301Z,42.95
2022-11-29T20:03:48.203Z,46.63
2022-11-29T20:06:16.156Z,43.75
2022-11-29T20:08:43.522Z,46.38
2022-11-29T20:11:15.648Z,42.28
2022-11-29T20:13:43.608Z,43.58
2022-11-29T20:16:13.066Z,42.00
2022-11-29T20:18:45.846Z,41.40
2022-11-29T20:21:21.955Z,34.88
2022-11-29T20:23:49.375Z,43.78
2022-11-29T20:26:18.414Z,43.60
2022-11-29T20:28:45.388Z,40.35
2022-11-29T20:31:16.241Z,43.00
2022-11-29T20:33:45.497Z,40.00
2022-11-29T20:36:27.972Z,40.30
2022-11-29T20:39:29.635Z,40.05
2022-11-29T20:42:17.831Z,40.90
2022-11-29T20:44:54.050Z,42.53
2022-11-29T20:47:23.596Z,42.60
2022-11-29T20:49:50.346Z,39.65
2022-11-29T20:52:44.824Z,37.65
2022-11-29T20:55:11.880Z,45.90
2022-11-29T20:57:38.815Z,45.17
2022-11-29T21:00:07.755Z,43.10
2022-11-29T21:02:36.812Z,41.13
2022-11-29T21:05:04.380Z,43.65
2022-11-29T21:07:31.176Z,39.92
2022-11-29T21:10:01.642Z,43.58
2022-11-29T21:12:30.303Z,42.70
2022-11-29T21:14:57.819Z,41.65
2022-11-29T21:17:30.210Z,41.65
2022-11-29T21:20:00.778Z,39.00
2022-11-29T21:23:01.829Z,44.08
2022-11-29T21:25:43.731Z,40.97
2022-11-29T21:28:13.247Z,42.45
2022-11-29T21:30:40.682Z,42.53
2022-11-29T21:33:07.735Z,39.63
2022-11-29T21:35:40.943Z,38.22
2022-11-29T21:38:14.340Z,43.13
2022-11-29T21:40:40.992Z,40.83
2022-11-29T21:43:10.088Z,38.65
2022-11-29T21:45:36.628Z,40.65
2022-11-29T21:48:04.659Z,39.42
2022-11-29T21:50:31.799Z,42.90
2022-11-29T21:52:58.670Z,39.67
2022-11-29T21:55:31.779Z,41.00
2022-11-29T21:57:59.736Z,43.77
2022-11-29T22:00:33.088Z,46.30
2022-11-29T22:03:02.765Z,40.90
2022-11-29T22:05:29.706Z,39.63
2022-11-29T22:08:00.562Z,42.42
2022-11-29T22:10:27.349Z,39.50
2022-11-29T22:12:54.029Z,46.42
2022-11-29T22:15:24.826Z,42.20
2022-11-29T22:17:51.776Z,41.78
2022-11-29T22:20:18.443Z,40.70
2022-11-29T22:22:45.617Z,41.20
2022-11-29T22:25:12.259Z,42.47
2022-11-29T22:27:38.920Z,46.20
2022-11-29T22:30:06.630Z,41.42
2022-11-29T22:32:33.468Z,40.80
2022-11-29T22:35:03.592Z,44.42
2022-11-29T22:37:30.251Z,45.95
2022-11-29T22:39:59.547Z,46.45
2022-11-29T22:42:27.054Z,44.22
2022-11-29T22:44:53.693Z,43.55
2022-11-29T22:47:20.343Z,45.55
2022-11-29T22:49:47.028Z,41.75
2022-11-29T22:52:13.782Z,43.65
2022-11-29T22:54:40.392Z,45.10
2022-11-29T22:57:07.101Z,45.35
2022-11-29T22:59:33.888Z,44.72
2022-11-29T23:02:00.588Z,43.90
2022-11-29T23:04:27.649Z,42.28
2022-11-29T23:06:54.281Z,42.85
2022-11-29T23:09:21.558Z,42.42
2022-11-29T23:11:53.322Z,41.97
2022-11-29T23:14:21.383Z,43.47
2022-11-29T23:16:48.174Z,41.25
2022-11-29T23:19:15.022Z,42.22
2022-11-29T23:21:42.704Z,40.70
2022-11-29T23:24:09.730Z,43.20
2022-11-29T23:26:42.884Z,40.80
2022-11-29T23:29:15.552Z,42.97
2022-11-29T23:31:43.847Z,44.08
2022-11-29T23:34:10.776Z,45.08
2022-11-29T23:36:37.410Z,43.00
2022-11-29T23:39:08.655Z,40.92
2022-11-29T23:41:36.930Z,48.03
2022-11-29T23:44:05.171Z,41.33
2022-11-29T23:46:31.831Z,42.75
2022-11-29T23:48:58.779Z,40.95
2022-11-29T23:51:29.180Z,43.10
2022-11-29T23:53:56.344Z,39.13
2022-11-29T23:56:23.699Z,47.60
2022-11-29T23:58:50.453Z,41.10
